Terminal Aerodrome Forecast
Issued by NWS Norman, OK

Home | Current Version | Previous Version | Text Only | Print | Product List | Glossary On
Versions: 1 2 3 4 5 6 7 8 9 10 11 12 13 14 15 16 17 18 19 20 21 22 23 24
000
FTUS44 KOUN 191722
TAFOKC
TAF
KOKC 191722Z 1918/2018 20015G21KT P6SM FEW250
     FM200400 36012KT P6SM OVC100
      TEMPO 2009/2012 -RA OVC040=

USA.gov is the U.S. government's official web portal to all federal, state and local government web resources and services.